West Winfield, New York
Current Conditions -  °F | °C
As of 10:53 AM on Thursday 23 Oct 2014 (Local Time) from KRME Reporting Station
Overcast Overcast  
Wind Chill: 44°   Ceiling: 2100
Heat Index: 47°   Visibility: 10mi
Dew Point: 39°   Wind: 7mph
Humidity: 74%   Direction: 350°N
Pressure: 29.96"   Gusts: NA
Location:  42.89°N, 75.19°W
Report Text: KRME 231453Z 35006KT 10SM OVC021 08/04 A2996 RMK AO2 SLP145 T00830039 53001
Loading
Personal Weather Stations






























Interactive Weather Map
Tropical Storm Tracking
New forecast layout! Learn more

10-Day Weather Forecast

Advertisements
Track Severe Weather on mobile